This is the latest recevied weather packets stored in our database for station/object KC2BRB-1. If no packets are shown the sender has not sent any weather packets the latest 10 day(s).
| Time | Temp. | Humidity | Pressure | Rain* | Wind** | Luminosity | Snow |
|---|---|---|---|---|---|---|---|
| 1777423077 | 24.44° C | 70% | 1015.1 hPa | 0 mm | - | - | - |
| 1777422777 | 24.44° C | 70% | 1015.1 hPa | 0 mm | - | - | - |
| 1777422533 | 25° C | 68% | 1015.3 hPa | 0 mm | - | - | - |
| 1777422478 | 25° C | 68% | 1015.3 hPa | 0 mm | - | - | - |
| 1777422177 | 25° C | 68% | 1015.3 hPa | 0 mm | - | - | - |
| 1777422034 | 26.11° C | 66% | 1015.3 hPa | 0 mm | - | - | - |
| 1777421877 | 25.56° C | 67% | 1015.3 hPa | 0 mm | - | - | - |
| 1777421729 | 26.11° C | 66% | 1015.3 hPa | 0 mm | - | - | - |
| 1777421579 | 25.56° C | 67% | 1015.3 hPa | 0 mm | - | - | - |
| 1777421278 | 26.11° C | 66% | 1015.3 hPa | 0 mm | - | - | - |
| 1777420977 | 26.11° C | 66% | 1015.3 hPa | 0 mm | - | - | - |
| 1777420927 | 27.22° C | 62% | 1015.5 hPa | 0 mm | - | - | - |
| 1777420677 | 27.22° C | 62% | 1015.5 hPa | 0 mm | - | - | - |
| 1777420377 | 27.22° C | 62% | 1015.5 hPa | 0 mm | - | - | - |
| 1777420078 | 27.78° C | 61% | 1015.5 hPa | 0 mm | - | - | - |
| 1777419791 | 28.33° C | 59% | 1015.4 hPa | 0 mm | - | - | - |
| 1777419778 | 27.78° C | 61% | 1015.5 hPa | 0 mm | - | - | - |
| 1777419477 | 28.33° C | 59% | 1015.4 hPa | 0 mm | - | - | - |
| 1777419178 | 28.33° C | 59% | 1015.4 hPa | 0 mm | - | - | - |
| 1777418878 | 29.44° C | 58% | 1015.2 hPa | 0 mm | - | - | - |
| 1777418578 | 29.44° C | 58% | 1015.2 hPa | 0 mm | - | - | - |
| 1777418278 | 30° C | 57% | 1015.2 hPa | 0 mm | - | - | - |
| 1777417978 | 30° C | 57% | 1015.2 hPa | 0 mm | - | - | - |
| 1777417532 | 30° C | 57% | 1015.1 hPa | 0 mm | - | - | - |
| 1777417378 | 30° C | 57% | 1015.1 hPa | 0 mm | - | - | - |
* Rain latest hour (hover to see other rain measurements)
** Current wind speed in m/s (hover to see current wind gust speed)